Etusivu
METAR-TAF:

METAR-TAF

Lentoasemat :

Atlanta, Georgia, Yhdysvallat

Atlantan kansainvälinen lentoasema Hartsfield-Jackson

Leveyspiiri: 33-38-25N, Pituuspiiri: 084-25-37W, korkeus merenpinnasta: 313 m

Tämänhetkinen sää

Tämä raportti tehtiin 36 minuuttia sitten, kello 06.52 UTC
Tuuli 6 kn idästä
Lämpötila 11°C
Kosteus 71%
Ilmanpaine 1025 hPa
Näkyvyys: 16.1 km
selkeää

METAR: KATL 190652Z 08006KT 10SM CLR 11/06 A3027 RMK AO2 SLP250 T01060061

Aika: 03:28 (07:28 UTC)

Sääennuste

Tämä raportti tehtiin 2 tuntia ja 5 minuuttia sitten, kello 05.23 UTC
Ennuste voimassa 19. päivästä klo 06 UTC - 20. päivään klo 12 UTC
Tuuli 5 kn idästä/koillisesta
Näkyvyys: 10 km
selkeää
From 19. päivästä klo 2100 UTC
Tuuli 3 kn pohjoisesta/koillisesta
Näkyvyys: 10 km
selkeää

TAF: KATL 190523Z 1906/2012 06005KT P6SM SKC FM192100 03003KT P6SM SKC

Säähavainnot ja -ennusteet yli 4000 lentoasemalta (METAR- ja TAF-raportit).

Käytössä olevat sääasemat on merkitty karttaan keltaisilla ja punaisilla pisteillä.

Aseta hiiri pisteen päälle nähdäksesi sääaseman nimen.

Klikkaa sitten nähdäksesi säähavainnot ja -ennusteet.

Kartan vaihtaminen: klikkaa mustalla rastilla varustettuja vihreitä pisteitä, niin voit zoomata sisään; viivalla varustettua vihreää pistettä, niin voit zoomata ulos tai vihreitä nuolia, niin pääset viereisille kartoille.


METAR-TAF: